Camp Ernest, Kentucky
Current Conditions -  °F | °C
As of 12:52 AM on Tuesday 27 Jan 2015 (Local Time) from KCVG Reporting Station
Overcast Overcast  
Wind Chill: 18°   Ceiling: 5500
Heat Index: 24°   Visibility: 9mi
Dew Point: 16°   Wind: 5mph
Humidity: 71%   Direction: 80°E
Pressure: 29.92"   Gusts: NA
Location:  39.0238°N, 84.7647°W
Report Text: KCVG 270552Z 08004KT 9SM FEW024 OVC055 M04/M09 A2992 RMK AO2 SLP141 T10441089 11028 21044 58003
Loading
Personal Weather Stations






























Interactive Weather Map New forecast layout! Learn more

10-Day Weather Forecast

Advertisements
Track Severe Weather on mobile